Time;durP1;ratioP1;P1;durP2;ratioP2;P2;SDS_P1;SDS_P2;PMS_P1;PMS_P2;Temp;Humidity;BMP_temperature;BMP_pressure;BME280_temperature;BME280_humidity;BME280_pressure;Samples;Min_cycle;Max_cycle;Signal;HPM_P1;HPM_P2
2021/10/03 00:00:16;;;;;;;;;;;;;;;;;;1022840;28;1039;-26
2021/10/03 00:00:48;;;;;;;;;;;;;;;;;;1022573;29;877;-26
2021/10/03 00:01:19;;;;;;;;;;;;;;;;;;1022277;29;1036;-24
2021/10/03 00:01:51;;;;;;;;;;;;;;;;;;1022302;28;1125;-25
2021/10/03 00:02:22;;;;;;;;;;;;;;;;;;1022364;29;976;-26
2021/10/03 00:02:53;;;;;;;;;;;;;;;;;;1022047;29;953;-25
2021/10/03 00:03:24;;;;;;;;;;;;;;;;;;1022805;29;1061;-25
2021/10/03 00:03:55;;;;;;;;;;;;;;;;;;1022545;28;1004;-23
2021/10/03 00:04:26;;;;;;;;;;;;;;;;;;1022869;28;1073;-26
2021/10/03 00:04:57;;;;;;;;;;;;;;;;;;1022495;29;957;-23
2021/10/03 00:05:28;;;;;;;;;;;;;;;;;;1022630;29;984;-28
2021/10/03 00:05:59;;;;;;;;;;;;;;;;;;1022661;28;1005;-25
2021/10/03 00:06:31;;;;;;;;;;;;;;;;;;1022669;29;921;-26
2021/10/03 00:07:01;;;;;;;;;;;;;;;;;;1022472;28;998;-24
2021/10/03 00:07:35;;;;;;;;;;;;;;;;;;1022598;28;985;-23
2021/10/03 00:08:07;;;;;;;;;;;;;;;;;;1022833;29;982;-27
2021/10/03 00:08:38;;;;;;;;;;;;;;;;;;1022448;28;1142;-25
2021/10/03 00:09:08;;;;;;;;;;;;;;;;;;1020773;28;1660;-28
2021/10/03 00:09:38;;;;;;;;;;;;;;;;;;1018802;29;958;-26
2021/10/03 00:10:09;;;;;;;;;;;;;;;;;;1015718;29;1447;-24
2021/10/03 00:10:40;;;;;;;;;;;;;;;;;;1014512;29;1189;-24
2021/10/03 00:11:10;;;;;;;;;;;;;;;;;;1014886;29;918;-24
2021/10/03 00:11:41;;;;;;;;;;;;;;;;;;1014496;29;1062;-25
2021/10/03 00:12:11;;;;;;;;;;;;;;;;;;1014803;29;943;-28
2021/10/03 00:12:42;;;;;;;;;;;;;;;;;;1014850;29;946;-24
2021/10/03 00:13:12;;;;;;;;;;;;;;;;;;1014748;29;1026;-25
2021/10/03 00:13:42;;;;;;;;;;;;;;;;;;1014894;29;997;-25
2021/10/03 00:14:13;;;;;;;;;;;;;;;;;;1014762;29;1068;-28
2021/10/03 00:14:43;;;;;;;;;;;;;;;;;;1014780;29;938;-23
2021/10/03 00:15:15;;;;;;;;;;;;;;;;;;1014947;29;898;-26
2021/10/03 00:15:45;;;;;;;;;;;;;;;;;;1014214;29;1319;-25
2021/10/03 00:16:16;;;;;;;;;;;;;;;;;;1014898;29;1243;-28
2021/10/03 00:16:47;;;;;;;;;;;;;;;;;;1018247;29;1919;-25
2021/10/03 00:17:18;;;;;;;;;;;;;;;;;;1018133;29;990;-30
2021/10/03 00:17:49;;;;;;;;;;;;;;;;;;1018234;29;938;-24
2021/10/03 00:18:19;;;;;;;;;;;;;;;;;;1018175;29;847;-28
2021/10/03 00:18:51;;;;;;;;;;;;;;;;;;1014600;29;1199;-27
2021/10/03 00:19:22;;;;;;;;;;;;;;;;;;1014718;29;1322;-28
2021/10/03 00:19:52;;;;;;;;;;;;;;;;;;1014686;29;800;-25
2021/10/03 00:20:23;;;;;;;;;;;;;;;;;;1014844;29;926;-25
2021/10/03 00:20:53;;;;;;;;;;;;;;;;;;1014680;29;767;-27
2021/10/03 00:21:23;;;;;;;;;;;;;;;;;;1014764;29;871;-27
2021/10/03 00:21:54;;;;;;;;;;;;;;;;;;1014648;29;1017;-24
2021/10/03 00:22:24;;;;;;;;;;;;;;;;;;1014763;29;905;-25
2021/10/03 00:22:55;;;;;;;;;;;;;;;;;;1014654;29;1322;-24
2021/10/03 00:23:25;;;;;;;;;;;;;;;;;;1014849;29;2472;-25
2021/10/03 00:23:55;;;;;;;;;;;;;;;;;;1018544;28;1205;-26
2021/10/03 00:24:26;;;;;;;;;;;;;;;;;;1018873;29;1181;-28
2021/10/03 00:24:57;;;;;;;;;;;;;;;;;;1022428;28;990;-24
2021/10/03 00:25:28;;;;;;;;;;;;;;;;;;1022784;28;831;-25
2021/10/03 00:25:58;;;;;;;;;;;;;;;;;;1022545;28;948;-24
2021/10/03 00:26:29;;;;;;;;;;;;;;;;;;1022633;28;835;-26
2021/10/03 00:26:59;;;;;;;;;;;;;;;;;;1022519;29;993;-26
2021/10/03 00:27:30;;;;;;;;;;;;;;;;;;1022468;28;1035;-26
2021/10/03 00:28:00;;;;;;;;;;;;;;;;;;1022761;28;834;-24
2021/10/03 00:28:31;;;;;;;;;;;;;;;;;;1022510;28;1093;-25
2021/10/03 00:29:02;;;;;;;;;;;;;;;;;;1018973;28;1151;-24
2021/10/03 00:29:34;;;;;;;;;;;;;;;;;;1018658;29;997;-29
2021/10/03 00:30:05;;;;;;;;;;;;;;;;;;1018406;29;1046;-23
2021/10/03 00:30:36;;;;;;;;;;;;;;;;;;1018301;29;1374;-27
2021/10/03 00:31:07;;;;;;;;;;;;;;;;;;1018844;29;1338;-26
2021/10/03 00:31:37;;;;;;;;;;;;;;;;;;1018343;29;971;-25
2021/10/03 00:32:07;;;;;;;;;;;;;;;;;;1018346;29;1053;-26
2021/10/03 00:32:38;;;;;;;;;;;;;;;;;;1018098;29;946;-24
2021/10/03 00:33:09;;;;;;;;;;;;;;;;;;1018226;29;988;-24
2021/10/03 00:33:39;;;;;;;;;;;;;;;;;;1018244;29;996;-28
2021/10/03 00:34:09;;;;;;;;;;;;;;;;;;1018582;29;1359;-26
2021/10/03 00:34:40;;;;;;;;;;;;;;;;;;1018482;29;956;-23
2021/10/03 00:35:11;;;;;;;;;;;;;;;;;;1019144;29;1385;-26
2021/10/03 00:35:41;;;;;;;;;;;;;;;;;;1022414;28;1142;-27
2021/10/03 00:36:12;;;;;;;;;;;;;;;;;;1019428;29;3568;-24
2021/10/03 00:36:42;;;;;;;;;;;;;;;;;;1018473;29;1979;-26
2021/10/03 00:37:12;;;;;;;;;;;;;;;;;;1018400;29;924;-25
2021/10/03 00:37:43;;;;;;;;;;;;;;;;;;1018636;29;1022;-23
2021/10/03 00:38:13;;;;;;;;;;;;;;;;;;1018627;29;1404;-30
2021/10/03 00:38:43;;;;;;;;;;;;;;;;;;1015477;29;3721;-23
2021/10/03 00:39:14;;;;;;;;;;;;;;;;;;1014776;29;962;-29
2021/10/03 00:39:45;;;;;;;;;;;;;;;;;;1014537;29;932;-24
2021/10/03 00:40:15;;;;;;;;;;;;;;;;;;1014703;29;833;-26
2021/10/03 00:40:46;;;;;;;;;;;;;;;;;;1014635;29;823;-27
2021/10/03 00:41:16;;;;;;;;;;;;;;;;;;1014615;29;1406;-24
2021/10/03 00:41:47;;;;;;;;;;;;;;;;;;1018321;29;970;-26
2021/10/03 00:42:17;;;;;;;;;;;;;;;;;;1018293;29;922;-25
2021/10/03 00:42:47;;;;;;;;;;;;;;;;;;1017990;29;947;-25
2021/10/03 00:43:18;;;;;;;;;;;;;;;;;;1018194;29;977;-26
2021/10/03 00:43:48;;;;;;;;;;;;;;;;;;1014685;29;954;-26
2021/10/03 00:44:19;;;;;;;;;;;;;;;;;;1014706;29;936;-27
2021/10/03 00:44:50;;;;;;;;;;;;;;;;;;1014539;29;955;-29
2021/10/03 00:45:20;;;;;;;;;;;;;;;;;;1014801;29;1099;-23
2021/10/03 00:45:50;;;;;;;;;;;;;;;;;;1014461;29;953;-24
2021/10/03 00:46:21;;;;;;;;;;;;;;;;;;1014839;29;1316;-24
2021/10/03 00:46:51;;;;;;;;;;;;;;;;;;1014274;29;922;-22
2021/10/03 00:47:22;;;;;;;;;;;;;;;;;;1014642;29;1014;-25
2021/10/03 00:47:52;;;;;;;;;;;;;;;;;;1014638;29;926;-26
2021/10/03 00:48:22;;;;;;;;;;;;;;;;;;1014362;29;1411;-25
2021/10/03 00:48:53;;;;;;;;;;;;;;;;;;1014345;29;1076;-25
2021/10/03 00:49:24;;;;;;;;;;;;;;;;;;1014885;29;1142;-24
2021/10/03 00:49:56;;;;;;;;;;;;;;;;;;1017898;29;2534;-28
2021/10/03 00:50:27;;;;;;;;;;;;;;;;;;1018581;29;1008;-23
2021/10/03 00:50:58;;;;;;;;;;;;;;;;;;1018477;29;988;-27
2021/10/03 00:51:29;;;;;;;;;;;;;;;;;;1021889;28;899;-26
2021/10/03 00:52:00;;;;;;;;;;;;;;;;;;1022173;29;1020;-24
2021/10/03 00:52:31;;;;;;;;;;;;;;;;;;1021793;29;987;-22
2021/10/03 00:53:02;;;;;;;;;;;;;;;;;;1021977;29;938;-28
2021/10/03 00:53:32;;;;;;;;;;;;;;;;;;1018300;28;668;-25
2021/10/03 00:54:03;;;;;;;;;;;;;;;;;;1020213;29;1387;-27
2021/10/03 00:54:34;;;;;;;;;;;;;;;;;;1022363;29;1008;-28
2021/10/03 00:55:04;;;;;;;;;;;;;;;;;;1022461;29;806;-27
2021/10/03 00:55:35;;;;;;;;;;;;;;;;;;1022341;29;1077;-26
2021/10/03 00:56:07;;;;;;;;;;;;;;;;;;1022355;29;890;-25
2021/10/03 00:56:38;;;;;;;;;;;;;;;;;;1022357;28;819;-24
2021/10/03 00:57:09;;;;;;;;;;;;;;;;;;1022187;28;1922;-23
2021/10/03 00:57:40;;;;;;;;;;;;;;;;;;1022387;28;882;-24
2021/10/03 00:58:11;;;;;;;;;;;;;;;;;;1022313;29;914;-25
2021/10/03 00:58:42;;;;;;;;;;;;;;;;;;1022431;28;935;-26
2021/10/03 00:59:12;;;;;;;;;;;;;;;;;;1022354;28;957;-26
2021/10/03 00:59:43;;;;;;;;;;;;;;;;;;1022085;28;1144;-27
2021/10/03 01:00:14;;;;;;;;;;;;;;;;;;1021882;29;1556;-26
2021/10/03 01:00:44;;;;;;;;;;;;;;;;;;1022268;28;1133;-24
2021/10/03 01:01:15;;;;;;;;;;;;;;;;;;1022488;28;1045;-25
2021/10/03 01:01:45;;;;;;;;;;;;;;;;;;1022271;28;973;-27
2021/10/03 01:02:16;;;;;;;;;;;;;;;;;;1025801;28;1371;-24
2021/10/03 01:02:47;;;;;;;;;;;;;;;;;;1025719;28;1065;-29
2021/10/03 01:03:18;;;;;;;;;;;;;;;;;;1025476;28;1218;-26
2021/10/03 01:03:49;;;;;;;;;;;;;;;;;;1025584;28;893;-25
2021/10/03 01:04:20;;;;;;;;;;;;;;;;;;1025651;28;1022;-25
2021/10/03 01:04:50;;;;;;;;;;;;;;;;;;1025809;28;871;-26
2021/10/03 01:05:21;;;;;;;;;;;;;;;;;;1025834;28;979;-25
2021/10/03 01:05:51;;;;;;;;;;;;;;;;;;1025618;28;950;-24
2021/10/03 01:06:22;;;;;;;;;;;;;;;;;;1017639;29;1103;-27
2021/10/03 01:06:52;;;;;;;;;;;;;;;;;;1014436;29;1201;-21
2021/10/03 01:07:23;;;;;;;;;;;;;;;;;;1014549;29;922;-24
2021/10/03 01:07:54;;;;;;;;;;;;;;;;;;1014725;29;796;-24
2021/10/03 01:08:24;;;;;;;;;;;;;;;;;;1014334;29;819;-26
2021/10/03 01:08:54;;;;;;;;;;;;;;;;;;1014629;29;1105;-24
2021/10/03 01:09:25;;;;;;;;;;;;;;;;;;1014694;29;816;-25
2021/10/03 01:09:57;;;;;;;;;;;;;;;;;;1014121;29;1598;-22
2021/10/03 01:10:28;;;;;;;;;;;;;;;;;;1014593;29;1023;-25
2021/10/03 01:10:58;;;;;;;;;;;;;;;;;;1014640;29;1088;-25
2021/10/03 01:11:29;;;;;;;;;;;;;;;;;;1014445;29;1122;-27
2021/10/03 01:11:59;;;;;;;;;;;;;;;;;;1014766;29;886;-22
2021/10/03 01:12:29;;;;;;;;;;;;;;;;;;1014314;29;1133;-27
2021/10/03 01:13:08;;;;;;;;;;;;;;;;;;1014648;29;837;-23
2021/10/03 01:13:38;;;;;;;;;;;;;;;;;;1014520;29;1091;-21
2021/10/03 01:14:08;;;;;;;;;;;;;;;;;;1014726;29;875;-23
2021/10/03 01:14:39;;;;;;;;;;;;;;;;;;1014537;29;965;-23
2021/10/03 01:15:10;;;;;;;;;;;;;;;;;;1014677;29;839;-23
2021/10/03 01:15:42;;;;;;;;;;;;;;;;;;1014482;29;1376;-23
2021/10/03 01:16:13;;;;;;;;;;;;;;;;;;1021680;29;1045;-22
2021/10/03 01:16:44;;;;;;;;;;;;;;;;;;1021587;29;1915;-21
2021/10/03 01:17:15;;;;;;;;;;;;;;;;;;1021618;29;1091;-24
2021/10/03 01:17:45;;;;;;;;;;;;;;;;;;1020975;29;882;-23
2021/10/03 01:18:15;;;;;;;;;;;;;;;;;;1014686;29;958;-23
2021/10/03 01:18:46;;;;;;;;;;;;;;;;;;1014258;29;1313;-24
2021/10/03 01:19:17;;;;;;;;;;;;;;;;;;1017780;29;1386;-26
2021/10/03 01:19:47;;;;;;;;;;;;;;;;;;1018796;29;2456;-26
2021/10/03 01:20:18;;;;;;;;;;;;;;;;;;1021575;29;1078;-23
2021/10/03 01:20:49;;;;;;;;;;;;;;;;;;1021770;29;977;-24
2021/10/03 01:21:19;;;;;;;;;;;;;;;;;;1021632;29;1349;-24
2021/10/03 01:21:49;;;;;;;;;;;;;;;;;;1018218;29;1020;-23
2021/10/03 01:22:20;;;;;;;;;;;;;;;;;;1018447;29;986;-26
2021/10/03 01:22:51;;;;;;;;;;;;;;;;;;1018314;29;954;-24
2021/10/03 01:23:22;;;;;;;;;;;;;;;;;;1021490;29;1027;-21
2021/10/03 01:23:53;;;;;;;;;;;;;;;;;;1021950;29;1036;-26
2021/10/03 01:24:24;;;;;;;;;;;;;;;;;;1021537;29;1005;-26
2021/10/03 01:24:58;;;;;;;;;;;;;;;;;;1021293;29;1049;-23
2021/10/03 01:25:33;;;;;;;;;;;;;;;;;;1017751;29;861;-27
2021/10/03 01:26:03;;;;;;;;;;;;;;;;;;1017816;29;1235;-24
2021/10/03 01:26:33;;;;;;;;;;;;;;;;;;1017803;29;1510;-25
2021/10/03 01:27:04;;;;;;;;;;;;;;;;;;1018323;29;893;-24
2021/10/03 01:27:36;;;;;;;;;;;;;;;;;;1018339;29;934;-22
2021/10/03 01:28:07;;;;;;;;;;;;;;;;;;1018521;29;967;-22
2021/10/03 01:28:38;;;;;;;;;;;;;;;;;;1018403;29;824;-22
2021/10/03 01:29:08;;;;;;;;;;;;;;;;;;1018512;29;854;-21
2021/10/03 01:29:39;;;;;;;;;;;;;;;;;;1018224;29;922;-24
2021/10/03 01:30:11;;;;;;;;;;;;;;;;;;1018710;29;918;-23
2021/10/03 01:30:43;;;;;;;;;;;;;;;;;;1018103;29;934;-26
2021/10/03 01:31:14;;;;;;;;;;;;;;;;;;1018427;29;1027;-23
2021/10/03 01:31:44;;;;;;;;;;;;;;;;;;1018462;29;882;-23
2021/10/03 01:32:16;;;;;;;;;;;;;;;;;;1018408;29;903;-23
2021/10/03 01:32:46;;;;;;;;;;;;;;;;;;1018527;29;847;-27
2021/10/03 01:33:17;;;;;;;;;;;;;;;;;;1018237;29;1020;-21
2021/10/03 01:33:47;;;;;;;;;;;;;;;;;;1018368;29;1327;-25
2021/10/03 01:34:17;;;;;;;;;;;;;;;;;;1018347;29;1017;-24
2021/10/03 01:34:48;;;;;;;;;;;;;;;;;;1018351;29;930;-25
2021/10/03 01:35:19;;;;;;;;;;;;;;;;;;1019421;29;1460;-24
2021/10/03 01:35:50;;;;;;;;;;;;;;;;;;1021922;29;3652;-21
2021/10/03 01:36:20;;;;;;;;;;;;;;;;;;1017718;29;1348;-25
2021/10/03 01:36:51;;;;;;;;;;;;;;;;;;1017875;29;1977;-21
2021/10/03 01:37:23;;;;;;;;;;;;;;;;;;1018386;29;1024;-29
2021/10/03 01:37:53;;;;;;;;;;;;;;;;;;1018407;29;841;-23
2021/10/03 01:38:24;;;;;;;;;;;;;;;;;;1017888;29;3640;-24
2021/10/03 01:38:54;;;;;;;;;;;;;;;;;;1014479;29;863;-26
2021/10/03 01:39:24;;;;;;;;;;;;;;;;;;1014413;29;1024;-22
2021/10/03 01:39:55;;;;;;;;;;;;;;;;;;1014583;29;1057;-25
2021/10/03 01:40:25;;;;;;;;;;;;;;;;;;1014144;29;993;-25
2021/10/03 01:40:56;;;;;;;;;;;;;;;;;;1014595;29;1110;-25
2021/10/03 01:41:27;;;;;;;;;;;;;;;;;;1014366;29;935;-23
2021/10/03 01:41:57;;;;;;;;;;;;;;;;;;1014404;29;1077;-25
2021/10/03 01:42:27;;;;;;;;;;;;;;;;;;1014519;29;1334;-27
2021/10/03 01:42:58;;;;;;;;;;;;;;;;;;1014528;29;804;-25
2021/10/03 01:43:28;;;;;;;;;;;;;;;;;;1014377;29;1294;-29
2021/10/03 01:44:00;;;;;;;;;;;;;;;;;;1014434;29;1348;-24
2021/10/03 01:44:30;;;;;;;;;;;;;;;;;;1014553;29;1010;-26
2021/10/03 01:45:01;;;;;;;;;;;;;;;;;;1014622;29;1068;-24
2021/10/03 01:45:32;;;;;;;;;;;;;;;;;;1014425;29;950;-25
2021/10/03 01:46:02;;;;;;;;;;;;;;;;;;1014507;29;1354;-25
2021/10/03 01:46:33;;;;;;;;;;;;;;;;;;1014147;29;1401;-22
2021/10/03 01:47:03;;;;;;;;;;;;;;;;;;1014398;29;993;-26
2021/10/03 01:47:34;;;;;;;;;;;;;;;;;;1014350;29;927;-23
2021/10/03 01:48:09;;;;;;;;;;;;;;;;;;1017979;29;1289;-26
2021/10/03 01:48:40;;;;;;;;;;;;;;;;;;1017904;29;946;-23
2021/10/03 01:49:12;;;;;;;;;;;;;;;;;;1018177;29;969;-24
2021/10/03 01:49:42;;;;;;;;;;;;;;;;;;1018940;29;2480;-22
2021/10/03 01:50:12;;;;;;;;;;;;;;;;;;1018605;29;819;-21
2021/10/03 01:50:45;;;;;;;;;;;;;;;;;;1018205;29;804;-25
2021/10/03 01:51:16;;;;;;;;;;;;;;;;;;1018559;29;1019;-24
2021/10/03 01:51:47;;;;;;;;;;;;;;;;;;1018431;29;1277;-23
2021/10/03 01:52:17;;;;;;;;;;;;;;;;;;1018294;29;939;-23
2021/10/03 01:52:47;;;;;;;;;;;;;;;;;;1018293;29;1028;-22
2021/10/03 01:53:44;;;;;;;;;;;;;;;;;;1018617;29;929;-23
2021/10/03 01:54:14;;;;;;;;;;;;;;;;;;1022472;28;1501;-21
2021/10/03 01:54:45;;;;;;;;;;;;;;;;;;1022247;29;1056;-23
2021/10/03 01:55:15;;;;;;;;;;;;;;;;;;1022412;29;900;-27
2021/10/03 01:55:46;;;;;;;;;;;;;;;;;;1022430;29;1075;-24
2021/10/03 01:56:17;;;;;;;;;;;;;;;;;;1021872;29;955;-22
2021/10/03 01:56:49;;;;;;;;;;;;;;;;;;1021859;29;1911;-25
2021/10/03 01:57:20;;;;;;;;;;;;;;;;;;1022151;28;866;-23
2021/10/03 01:57:50;;;;;;;;;;;;;;;;;;1021828;29;1319;-21
2021/10/03 01:58:22;;;;;;;;;;;;;;;;;;1022047;29;907;-24
2021/10/03 01:58:54;;;;;;;;;;;;;;;;;;1021981;29;992;-22
2021/10/03 01:59:25;;;;;;;;;;;;;;;;;;1021894;29;1077;-27
2021/10/03 01:59:55;;;;;;;;;;;;;;;;;;1022160;29;922;-21
2021/10/03 02:00:26;;;;;;;;;;;;;;;;;;1025322;28;1263;-23
2021/10/03 02:00:59;;;;;;;;;;;;;;;;;;1025639;28;1008;-22
2021/10/03 02:01:34;;;;;;;;;;;;;;;;;;1025612;28;961;-21
2021/10/03 02:02:05;;;;;;;;;;;;;;;;;;1025015;28;1012;-22
2021/10/03 02:02:35;;;;;;;;;;;;;;;;;;1017679;28;1172;-22
2021/10/03 02:03:06;;;;;;;;;;;;;;;;;;1018147;29;851;-24
2021/10/03 02:03:36;;;;;;;;;;;;;;;;;;1017863;29;1106;-22
2021/10/03 02:04:11;;;;;;;;;;;;;;;;;;1018230;29;939;-24
2021/10/03 02:04:42;;;;;;;;;;;;;;;;;;1017787;29;1139;-23
2021/10/03 02:05:12;;;;;;;;;;;;;;;;;;1018234;29;1176;-24
2021/10/03 02:05:43;;;;;;;;;;;;;;;;;;1021850;29;931;-23
2021/10/03 02:06:14;;;;;;;;;;;;;;;;;;1022065;29;891;-22
2021/10/03 02:06:45;;;;;;;;;;;;;;;;;;1018172;29;1267;-21
2021/10/03 02:07:17;;;;;;;;;;;;;;;;;;1018178;29;1028;-24
2021/10/03 02:07:48;;;;;;;;;;;;;;;;;;1018521;29;953;-22
2021/10/03 02:08:18;;;;;;;;;;;;;;;;;;1018213;29;892;-22
2021/10/03 02:08:54;;;;;;;;;;;;;;;;;;1018316;29;1092;-22
2021/10/03 02:09:26;;;;;;;;;;;;;;;;;;1018506;29;881;-22
2021/10/03 02:09:57;;;;;;;;;;;;;;;;;;1018088;29;999;-24
2021/10/03 02:10:28;;;;;;;;;;;;;;;;;;1018349;29;906;-23
2021/10/03 02:11:00;;;;;;;;;;;;;;;;;;1018405;29;907;-22
2021/10/03 02:11:30;;;;;;;;;;;;;;;;;;1018670;29;887;-22
2021/10/03 02:12:01;;;;;;;;;;;;;;;;;;1019301;29;859;-23
2021/10/03 02:12:31;;;;;;;;;;;;;;;;;;1019115;29;942;-24
2021/10/03 02:13:02;;;;;;;;;;;;;;;;;;1019112;29;1357;-21
2021/10/03 02:13:32;;;;;;;;;;;;;;;;;;1019060;29;916;-21
2021/10/03 02:14:03;;;;;;;;;;;;;;;;;;1019295;29;976;-22
2021/10/03 02:14:34;;;;;;;;;;;;;;;;;;1019059;29;935;-23
2021/10/03 02:15:05;;;;;;;;;;;;;;;;;;1019198;29;957;-24
2021/10/03 02:15:36;;;;;;;;;;;;;;;;;;1019178;29;1058;-24
2021/10/03 02:16:06;;;;;;;;;;;;;;;;;;1018900;29;2484;-22
2021/10/03 02:16:37;;;;;;;;;;;;;;;;;;1018790;29;1160;-23
2021/10/03 02:17:07;;;;;;;;;;;;;;;;;;1018928;29;1914;-25
2021/10/03 02:17:37;;;;;;;;;;;;;;;;;;1018866;29;1056;-22
2021/10/03 02:18:09;;;;;;;;;;;;;;;;;;1019287;29;992;-22
2021/10/03 02:18:40;;;;;;;;;;;;;;;;;;1018940;29;1417;-21
2021/10/03 02:19:11;;;;;;;;;;;;;;;;;;1019092;29;1121;-26
2021/10/03 02:19:41;;;;;;;;;;;;;;;;;;1019060;29;796;-26
2021/10/03 02:20:14;;;;;;;;;;;;;;;;;;1019067;29;995;-26
2021/10/03 02:20:44;;;;;;;;;;;;;;;;;;1018928;29;839;-22
2021/10/03 02:21:15;;;;;;;;;;;;;;;;;;1019274;29;1052;-21
2021/10/03 02:21:47;;;;;;;;;;;;;;;;;;1018633;29;1580;-22
2021/10/03 02:22:19;;;;;;;;;;;;;;;;;;1019210;29;976;-21
2021/10/03 02:22:50;;;;;;;;;;;;;;;;;;1019065;29;1210;-25
2021/10/03 02:23:21;;;;;;;;;;;;;;;;;;1019116;29;898;-24
2021/10/03 02:23:51;;;;;;;;;;;;;;;;;;1019101;29;843;-24
2021/10/03 02:24:22;;;;;;;;;;;;;;;;;;1019111;29;927;-23
2021/10/03 02:24:56;;;;;;;;;;;;;;;;;;1022734;29;1500;-23
2021/10/03 02:25:26;;;;;;;;;;;;;;;;;;1023040;28;1311;-26
2021/10/03 02:25:57;;;;;;;;;;;;;;;;;;1022686;28;1144;-24
2021/10/03 02:26:28;;;;;;;;;;;;;;;;;;1020981;28;1505;-22
2021/10/03 02:26:58;;;;;;;;;;;;;;;;;;1018994;29;1152;-22
2021/10/03 02:27:28;;;;;;;;;;;;;;;;;;1018951;29;1004;-24
2021/10/03 02:27:59;;;;;;;;;;;;;;;;;;1019051;29;1039;-21
2021/10/03 02:28:30;;;;;;;;;;;;;;;;;;1018968;29;953;-23
2021/10/03 02:29:00;;;;;;;;;;;;;;;;;;1018736;29;1030;-26
2021/10/03 02:29:31;;;;;;;;;;;;;;;;;;1018486;29;1491;-22
2021/10/03 02:30:03;;;;;;;;;;;;;;;;;;1018640;29;1194;-24
2021/10/03 02:30:33;;;;;;;;;;;;;;;;;;1021989;28;1018;-24
2021/10/03 02:31:07;;;;;;;;;;;;;;;;;;1022328;29;1120;-23
2021/10/03 02:31:38;;;;;;;;;;;;;;;;;;1022297;29;994;-24
2021/10/03 02:32:08;;;;;;;;;;;;;;;;;;1022070;29;898;-23
2021/10/03 02:32:38;;;;;;;;;;;;;;;;;;1018954;29;867;-27
2021/10/03 02:33:09;;;;;;;;;;;;;;;;;;1019199;29;961;-21
2021/10/03 02:33:42;;;;;;;;;;;;;;;;;;1018516;29;904;-24
2021/10/03 02:34:12;;;;;;;;;;;;;;;;;;1018936;29;799;-21
2021/10/03 02:34:42;;;;;;;;;;;;;;;;;;1014634;29;983;-25
2021/10/03 02:35:13;;;;;;;;;;;;;;;;;;1015997;29;1374;-21
2021/10/03 02:35:43;;;;;;;;;;;;;;;;;;1022496;29;835;-22
2021/10/03 02:36:15;;;;;;;;;;;;;;;;;;1019115;29;3532;-22
2021/10/03 02:36:45;;;;;;;;;;;;;;;;;;1018865;29;1918;-22
2021/10/03 02:37:16;;;;;;;;;;;;;;;;;;1019075;29;969;-22
2021/10/03 02:37:46;;;;;;;;;;;;;;;;;;1026060;28;1053;-26
2021/10/03 02:38:18;;;;;;;;;;;;;;;;;;1022239;29;1084;-20
2021/10/03 02:38:49;;;;;;;;;;;;;;;;;;1022132;29;3660;-23
2021/10/03 02:39:19;;;;;;;;;;;;;;;;;;1022105;29;977;-21
2021/10/03 02:39:50;;;;;;;;;;;;;;;;;;1018571;29;1377;-22
2021/10/03 02:40:20;;;;;;;;;;;;;;;;;;1015008;29;1016;-22
2021/10/03 02:40:52;;;;;;;;;;;;;;;;;;1015036;29;1560;-27
2021/10/03 02:41:22;;;;;;;;;;;;;;;;;;1015282;29;899;-25
2021/10/03 02:41:53;;;;;;;;;;;;;;;;;;1015020;29;1132;-24
2021/10/03 02:42:24;;;;;;;;;;;;;;;;;;1015202;29;1364;-26
2021/10/03 02:42:54;;;;;;;;;;;;;;;;;;1022115;29;1082;-24
2021/10/03 02:43:26;;;;;;;;;;;;;;;;;;1022262;29;906;-22
2021/10/03 02:43:58;;;;;;;;;;;;;;;;;;1022238;29;1078;-24
2021/10/03 02:44:28;;;;;;;;;;;;;;;;;;1021636;29;906;-23
2021/10/03 02:44:58;;;;;;;;;;;;;;;;;;1015081;29;1367;-22
2021/10/03 02:45:29;;;;;;;;;;;;;;;;;;1014963;29;954;-22
2021/10/03 02:46:00;;;;;;;;;;;;;;;;;;1015187;29;1355;-24
2021/10/03 02:46:32;;;;;;;;;;;;;;;;;;1015013;29;895;-22
2021/10/03 02:47:03;;;;;;;;;;;;;;;;;;1014937;29;1076;-25
2021/10/03 02:47:33;;;;;;;;;;;;;;;;;;1015206;29;1001;-23
2021/10/03 02:48:04;;;;;;;;;;;;;;;;;;1014999;29;903;-23
2021/10/03 02:48:36;;;;;;;;;;;;;;;;;;1022260;29;1130;-24
2021/10/03 02:49:06;;;;;;;;;;;;;;;;;;1022283;29;947;-25
2021/10/03 02:49:38;;;;;;;;;;;;;;;;;;1023387;28;2432;-25
2021/10/03 02:50:08;;;;;;;;;;;;;;;;;;1026043;28;989;-28
2021/10/03 02:50:39;;;;;;;;;;;;;;;;;;1018774;29;1019;-23
2021/10/03 02:51:09;;;;;;;;;;;;;;;;;;1018949;29;872;-23
2021/10/03 02:51:39;;;;;;;;;;;;;;;;;;1019051;29;985;-23
2021/10/03 02:52:11;;;;;;;;;;;;;;;;;;1022501;29;982;-24
2021/10/03 02:52:42;;;;;;;;;;;;;;;;;;1022114;29;1081;-21
2021/10/03 02:53:13;;;;;;;;;;;;;;;;;;1022304;29;985;-22
2021/10/03 02:53:47;;;;;;;;;;;;;;;;;;1022119;29;1001;-24
2021/10/03 02:54:17;;;;;;;;;;;;;;;;;;1025611;28;1426;-22
2021/10/03 02:54:48;;;;;;;;;;;;;;;;;;1022953;28;887;-22
2021/10/03 02:55:18;;;;;;;;;;;;;;;;;;1022934;29;1250;-26
2021/10/03 02:55:49;;;;;;;;;;;;;;;;;;1022933;29;929;-27
2021/10/03 02:56:20;;;;;;;;;;;;;;;;;;1023013;29;943;-22
2021/10/03 02:56:51;;;;;;;;;;;;;;;;;;1022637;29;1993;-22
2021/10/03 02:57:21;;;;;;;;;;;;;;;;;;1022876;29;858;-24
2021/10/03 02:57:51;;;;;;;;;;;;;;;;;;1022813;29;1116;-21
2021/10/03 02:58:22;;;;;;;;;;;;;;;;;;1022985;28;1304;-23
2021/10/03 02:58:53;;;;;;;;;;;;;;;;;;1017704;29;1059;-21
2021/10/03 02:59:23;;;;;;;;;;;;;;;;;;1015051;29;1001;-22
2021/10/03 02:59:54;;;;;;;;;;;;;;;;;;1015032;29;1418;-24
2021/10/03 03:00:24;;;;;;;;;;;;;;;;;;1015089;29;941;-24
2021/10/03 03:00:55;;;;;;;;;;;;;;;;;;1015001;29;902;-22
2021/10/03 03:01:25;;;;;;;;;;;;;;;;;;1014884;29;1019;-27
2021/10/03 03:01:55;;;;;;;;;;;;;;;;;;1019006;29;923;-22
2021/10/03 03:02:26;;;;;;;;;;;;;;;;;;1018808;29;1516;-26
2021/10/03 03:02:56;;;;;;;;;;;;;;;;;;1018767;29;1122;-21
2021/10/03 03:03:29;;;;;;;;;;;;;;;;;;1022165;29;1408;-25
2021/10/03 03:04:00;;;;;;;;;;;;;;;;;;1022103;29;1272;-23
2021/10/03 03:04:30;;;;;;;;;;;;;;;;;;1022369;29;930;-26
2021/10/03 03:05:01;;;;;;;;;;;;;;;;;;1021806;29;1453;-21
2021/10/03 03:05:31;;;;;;;;;;;;;;;;;;1018661;29;1157;-24
2021/10/03 03:06:07;;;;;;;;;;;;;;;;;;1018960;29;1329;-23
2021/10/03 03:06:38;;;;;;;;;;;;;;;;;;1018777;29;957;-29
2021/10/03 03:07:08;;;;;;;;;;;;;;;;;;1018838;29;813;-23
2021/10/03 03:07:39;;;;;;;;;;;;;;;;;;1018972;29;899;-22
2021/10/03 03:08:09;;;;;;;;;;;;;;;;;;1018870;29;918;-22
2021/10/03 03:08:39;;;;;;;;;;;;;;;;;;1018906;29;1011;-25
2021/10/03 03:09:10;;;;;;;;;;;;;;;;;;1019022;29;946;-25
2021/10/03 03:09:40;;;;;;;;;;;;;;;;;;1018858;29;946;-27
2021/10/03 03:10:11;;;;;;;;;;;;;;;;;;1019049;29;851;-23
2021/10/03 03:10:41;;;;;;;;;;;;;;;;;;1018795;29;1231;-23
2021/10/03 03:11:12;;;;;;;;;;;;;;;;;;1018935;29;972;-26
2021/10/03 03:11:42;;;;;;;;;;;;;;;;;;1018978;29;934;-23
2021/10/03 03:12:13;;;;;;;;;;;;;;;;;;1018628;29;2473;-25
2021/10/03 03:12:43;;;;;;;;;;;;;;;;;;1018883;28;1216;-23
2021/10/03 03:13:13;;;;;;;;;;;;;;;;;;1018611;29;898;-26
2021/10/03 03:13:44;;;;;;;;;;;;;;;;;;1018517;29;1133;-28
2021/10/03 03:14:14;;;;;;;;;;;;;;;;;;1018523;29;983;-25
2021/10/03 03:14:45;;;;;;;;;;;;;;;;;;1018615;29;898;-22
2021/10/03 03:15:15;;;;;;;;;;;;;;;;;;1018837;29;970;-22
2021/10/03 03:15:46;;;;;;;;;;;;;;;;;;1018783;29;1396;-26
2021/10/03 03:16:17;;;;;;;;;;;;;;;;;;1018693;29;1234;-25
2021/10/03 03:16:49;;;;;;;;;;;;;;;;;;1018945;29;1977;-25
2021/10/03 03:17:19;;;;;;;;;;;;;;;;;;1018723;29;1027;-22
2021/10/03 03:17:50;;;;;;;;;;;;;;;;;;1015051;29;1096;-22
2021/10/03 03:18:20;;;;;;;;;;;;;;;;;;1014818;29;1344;-22
2021/10/03 03:18:50;;;;;;;;;;;;;;;;;;1014967;29;938;-27
2021/10/03 03:19:21;;;;;;;;;;;;;;;;;;1014802;29;1208;-25
2021/10/03 03:19:52;;;;;;;;;;;;;;;;;;1015004;29;937;-23
2021/10/03 03:20:22;;;;;;;;;;;;;;;;;;1022056;29;1084;-22
2021/10/03 03:20:52;;;;;;;;;;;;;;;;;;1022211;29;1087;-24
2021/10/03 03:21:23;;;;;;;;;;;;;;;;;;1021925;29;957;-26
2021/10/03 03:21:53;;;;;;;;;;;;;;;;;;1022237;29;926;-23
2021/10/03 03:22:25;;;;;;;;;;;;;;;;;;1014831;29;933;-24
2021/10/03 03:22:56;;;;;;;;;;;;;;;;;;1018026;29;895;-27
2021/10/03 03:23:26;;;;;;;;;;;;;;;;;;1018304;29;959;-26
2021/10/03 03:23:57;;;;;;;;;;;;;;;;;;1017872;29;1037;-21
2021/10/03 03:24:27;;;;;;;;;;;;;;;;;;1019045;28;1276;-24
2021/10/03 03:24:58;;;;;;;;;;;;;;;;;;1026015;28;1045;-24
2021/10/03 03:25:28;;;;;;;;;;;;;;;;;;1026064;28;959;-24
2021/10/03 03:25:58;;;;;;;;;;;;;;;;;;1022972;28;834;-23
2021/10/03 03:26:28;;;;;;;;;;;;;;;;;;1020441;28;1466;-24
2021/10/03 03:26:59;;;;;;;;;;;;;;;;;;1018840;29;1317;-27
2021/10/03 03:27:29;;;;;;;;;;;;;;;;;;1018711;29;1410;-23
2021/10/03 03:28:00;;;;;;;;;;;;;;;;;;1018668;29;1251;-25
2021/10/03 03:28:30;;;;;;;;;;;;;;;;;;1018889;29;1253;-26
2021/10/03 03:29:00;;;;;;;;;;;;;;;;;;1018345;29;1544;-23
2021/10/03 03:29:31;;;;;;;;;;;;;;;;;;1018773;29;1115;-26
2021/10/03 03:30:06;;;;;;;;;;;;;;;;;;1018989;29;938;-26
2021/10/03 03:30:36;;;;;;;;;;;;;;;;;;1018372;29;1114;-22
2021/10/03 03:31:06;;;;;;;;;;;;;;;;;;1018957;29;884;-25
2021/10/03 03:31:37;;;;;;;;;;;;;;;;;;1018808;29;1288;-26
2021/10/03 03:32:07;;;;;;;;;;;;;;;;;;1018863;29;956;-25
2021/10/03 03:32:38;;;;;;;;;;;;;;;;;;1018802;29;936;-23
2021/10/03 03:33:09;;;;;;;;;;;;;;;;;;1018617;29;1333;-23
2021/10/03 03:33:39;;;;;;;;;;;;;;;;;;1021822;29;1104;-23
2021/10/03 03:34:09;;;;;;;;;;;;;;;;;;1022079;29;1005;-27
2021/10/03 03:34:40;;;;;;;;;;;;;;;;;;1022050;29;925;-24
2021/10/03 03:35:10;;;;;;;;;;;;;;;;;;1022595;28;1357;-24
2021/10/03 03:35:43;;;;;;;;;;;;;;;;;;1022764;28;883;-25
2021/10/03 03:36:13;;;;;;;;;;;;;;;;;;1019502;28;3700;-26